createdAt,value
2023-06-29T00:00:58.585Z,100631.27
2023-06-29T00:03:13.041Z,100631.04
2023-06-29T00:05:07.237Z,100628.61
2023-06-29T00:07:04.610Z,100626.73
2023-06-29T00:08:57.813Z,100631.34
2023-06-29T00:10:52.284Z,100633.30
2023-06-29T00:12:45.347Z,100631.86
2023-06-29T00:14:38.393Z,100628.73
2023-06-29T00:16:32.475Z,100629.13
2023-06-29T00:18:29.319Z,100629.00
2023-06-29T00:20:29.906Z,100631.35
2023-06-29T00:22:22.976Z,100627.02
2023-06-29T00:24:16.273Z,100624.97
2023-06-29T00:26:09.318Z,100625.93
2023-06-29T00:28:03.159Z,100623.07
2023-06-29T00:29:56.211Z,100621.19
2023-06-29T00:31:49.575Z,100622.16
2023-06-29T00:33:44.785Z,100620.31
2023-06-29T00:35:38.119Z,100625.07
2023-06-29T00:37:31.170Z,100623.19
2023-06-29T00:39:24.217Z,100621.56
2023-06-29T00:41:17.476Z,100625.94
2023-06-29T00:43:12.272Z,100621.04
2023-06-29T00:45:06.139Z,100623.42
2023-06-29T00:46:59.981Z,100628.08
2023-06-29T00:48:53.878Z,100624.05
2023-06-29T00:50:47.236Z,100626.73
2023-06-29T00:52:41.921Z,100623.70
2023-06-29T00:54:35.014Z,100623.37
2023-06-29T00:56:29.356Z,100626.30
2023-06-29T00:58:22.408Z,100628.05
2023-06-29T01:00:16.816Z,100625.56
2023-06-29T01:02:10.554Z,100626.39
2023-06-29T01:04:04.080Z,100620.29
2023-06-29T01:06:05.720Z,100619.86
2023-06-29T01:08:28.832Z,100619.17
2023-06-29T01:10:25.869Z,100622.59
2023-06-29T01:12:20.124Z,100621.14
2023-06-29T01:14:16.819Z,100618.05
2023-06-29T01:16:12.962Z,100614.45
2023-06-29T01:18:08.595Z,100611.00
2023-06-29T01:20:02.414Z,100611.44
2023-06-29T01:22:04.061Z,100611.47
2023-06-29T01:24:01.605Z,100611.20
2023-06-29T01:25:56.698Z,100610.43
2023-06-29T01:27:53.741Z,100616.10
2023-06-29T01:29:46.893Z,100617.74
2023-06-29T01:31:39.883Z,100619.70
2023-06-29T01:33:34.452Z,100620.54
2023-06-29T01:35:28.097Z,100616.99
2023-06-29T01:37:26.152Z,100612.80
2023-06-29T01:39:24.233Z,100611.34
2023-06-29T01:41:19.102Z,100609.29
2023-06-29T01:43:12.071Z,100604.34
2023-06-29T01:45:10.023Z,100605.31
2023-06-29T01:47:09.786Z,100610.88
2023-06-29T01:49:02.909Z,100612.23
2023-06-29T01:50:56.593Z,100615.00
2023-06-29T01:52:49.820Z,100616.29
2023-06-29T01:54:42.792Z,100611.66
2023-06-29T01:56:36.321Z,100613.02
2023-06-29T01:58:29.701Z,100612.15
2023-06-29T02:00:22.832Z,100613.70
2023-06-29T02:02:18.465Z,100614.42
2023-06-29T02:04:11.907Z,100618.52
2023-06-29T02:06:05.068Z,100622.69
2023-06-29T02:07:58.117Z,100620.23
2023-06-29T02:09:52.334Z,100617.39
2023-06-29T02:11:45.338Z,100620.67
2023-06-29T02:13:38.289Z,100621.30
2023-06-29T02:15:31.859Z,100623.77
2023-06-29T02:17:32.124Z,100620.74
2023-06-29T02:19:25.113Z,100623.92
2023-06-29T02:21:18.165Z,100621.39
2023-06-29T02:23:11.218Z,100623.19
2023-06-29T02:25:04.708Z,100620.70
2023-06-29T02:26:57.831Z,100621.34
2023-06-29T02:28:51.084Z,100619.23
2023-06-29T02:30:44.135Z,100617.33
2023-06-29T02:32:37.137Z,100621.83
2023-06-29T02:34:31.771Z,100622.38
2023-06-29T02:36:25.130Z,100623.38
2023-06-29T02:38:18.113Z,100625.34
2023-06-29T02:40:11.744Z,100626.24
2023-06-29T02:42:05.121Z,100626.20
2023-06-29T02:43:58.254Z,100623.45
2023-06-29T02:45:51.716Z,100624.86
2023-06-29T02:47:45.215Z,100623.02
2023-06-29T02:49:38.842Z,100621.91
2023-06-29T02:51:31.991Z,100623.11
2023-06-29T02:53:29.244Z,100621.59
2023-06-29T02:55:25.965Z,100620.02
2023-06-29T02:57:19.129Z,100626.33
2023-06-29T02:59:12.385Z,100627.52
2023-06-29T03:01:05.458Z,100630.16
2023-06-29T03:03:02.335Z,100628.55
2023-06-29T03:04:55.649Z,100625.13
2023-06-29T03:06:48.922Z,100626.51
2023-06-29T03:08:41.969Z,100629.61
2023-06-29T03:10:35.728Z,100631.86
2023-06-29T03:12:29.372Z,100634.04
2023-06-29T03:14:23.455Z,100636.55
2023-06-29T03:16:16.602Z,100641.93
2023-06-29T03:18:10.243Z,100644.98
2023-06-29T03:20:04.141Z,100643.69
2023-06-29T03:21:57.289Z,100646.42
2023-06-29T03:23:50.971Z,100646.38
2023-06-29T03:25:44.212Z,100648.16
2023-06-29T03:27:38.592Z,100647.25
2023-06-29T03:29:31.848Z,100649.64
2023-06-29T03:31:24.852Z,100653.02
2023-06-29T03:33:18.055Z,100648.53
2023-06-29T03:35:11.039Z,100650.79
2023-06-29T03:37:04.262Z,100645.98
2023-06-29T03:38:57.233Z,100642.92
2023-06-29T03:40:50.567Z,100642.77
2023-06-29T03:42:43.713Z,100643.22
2023-06-29T03:44:37.789Z,100639.88
2023-06-29T03:46:30.836Z,100640.89
2023-06-29T03:48:28.837Z,100637.67
2023-06-29T03:50:21.957Z,100640.98
2023-06-29T03:52:15.213Z,100642.36
2023-06-29T03:54:08.262Z,100645.98
2023-06-29T03:56:01.416Z,100645.30
2023-06-29T03:57:56.005Z,100641.47
2023-06-29T03:59:48.952Z,100642.67
2023-06-29T04:01:41.938Z,100640.92
2023-06-29T04:03:35.228Z,100640.15
2023-06-29T04:05:28.612Z,100638.33
2023-06-29T04:07:21.793Z,100645.85
2023-06-29T04:09:14.819Z,100646.57
2023-06-29T04:11:09.154Z,100650.16
2023-06-29T04:13:03.376Z,100651.84
2023-06-29T04:14:56.325Z,100652.74
2023-06-29T04:16:49.509Z,100654.52
2023-06-29T04:18:42.497Z,100653.86
2023-06-29T04:20:37.312Z,100655.05
2023-06-29T04:22:40.099Z,100654.11
2023-06-29T04:24:33.681Z,100654.63
2023-06-29T04:26:29.390Z,100652.29
2023-06-29T04:28:22.451Z,100655.29
2023-06-29T04:30:18.984Z,100655.21
2023-06-29T04:32:12.229Z,100653.31
2023-06-29T04:34:05.695Z,100649.14
2023-06-29T04:35:58.633Z,100649.48
2023-06-29T04:37:51.667Z,100649.59
2023-06-29T04:39:44.647Z,100650.11
2023-06-29T04:41:37.867Z,100650.00
2023-06-29T04:43:34.222Z,100650.98
2023-06-29T04:45:27.361Z,100651.36
2023-06-29T04:47:20.534Z,100646.34
2023-06-29T04:49:13.788Z,100648.95
2023-06-29T04:51:07.089Z,100654.77
2023-06-29T04:53:00.575Z,100653.34
2023-06-29T04:54:53.627Z,100656.19
2023-06-29T04:56:51.086Z,100654.55
2023-06-29T04:58:44.072Z,100652.95
2023-06-29T05:00:37.193Z,100655.92
2023-06-29T05:02:30.331Z,100653.49
2023-06-29T05:04:23.496Z,100653.05
2023-06-29T05:06:16.953Z,100650.92
2023-06-29T05:08:10.026Z,100652.88
2023-06-29T05:10:03.298Z,100650.59
2023-06-29T05:11:56.413Z,100651.52
2023-06-29T05:13:49.464Z,100650.21
2023-06-29T05:15:43.443Z,100649.25
2023-06-29T05:17:37.729Z,100649.11
2023-06-29T05:19:30.866Z,100650.95
2023-06-29T05:21:24.016Z,100650.48
2023-06-29T05:23:19.107Z,100649.77
2023-06-29T05:25:12.458Z,100647.23
2023-06-29T05:27:06.041Z,100649.02
2023-06-29T05:29:05.114Z,100646.40
2023-06-29T05:30:59.362Z,100642.99
2023-06-29T05:32:53.252Z,100642.19
2023-06-29T05:34:46.349Z,100646.96
2023-06-29T05:36:39.389Z,100649.64
2023-06-29T05:38:32.435Z,100653.02
2023-06-29T05:40:25.723Z,100652.13
2023-06-29T05:42:18.840Z,100650.63
2023-06-29T05:44:11.900Z,100651.71
2023-06-29T05:46:04.983Z,100652.92
2023-06-29T05:47:58.118Z,100653.65
2023-06-29T05:49:52.693Z,100654.13
2023-06-29T05:51:46.037Z,100654.48
2023-06-29T05:53:38.990Z,100658.27
2023-06-29T05:55:32.032Z,100660.52
2023-06-29T05:57:25.012Z,100659.67
2023-06-29T05:59:18.071Z,100661.57
2023-06-29T06:01:11.221Z,100665.55
2023-06-29T06:03:05.416Z,100658.68
2023-06-29T06:04:58.721Z,100658.91
2023-06-29T06:06:52.242Z,100659.14
2023-06-29T06:08:45.900Z,100653.53
2023-06-29T06:10:39.532Z,100658.45
2023-06-29T06:12:33.075Z,100659.62
2023-06-29T06:14:26.645Z,100659.86
2023-06-29T06:16:19.964Z,100661.42
2023-06-29T06:18:13.374Z,100656.66
2023-06-29T06:20:08.069Z,100656.60
2023-06-29T06:22:01.642Z,100656.63
2023-06-29T06:23:56.528Z,100659.65
2023-06-29T06:25:50.618Z,100657.15
2023-06-29T06:27:44.786Z,100656.96
2023-06-29T06:29:39.125Z,100657.54
2023-06-29T06:31:34.872Z,100661.10
2023-06-29T06:33:31.482Z,100658.80
2023-06-29T06:35:25.190Z,100661.55
2023-06-29T06:37:19.574Z,100660.24
2023-06-29T06:39:20.501Z,100663.04
2023-06-29T06:41:14.259Z,100660.79
2023-06-29T06:43:09.457Z,100660.69
2023-06-29T06:45:14.170Z,100659.66
2023-06-29T06:47:11.001Z,100658.50
2023-06-29T06:49:06.890Z,100658.27
2023-06-29T06:51:06.137Z,100656.13
2023-06-29T06:53:00.260Z,100656.38
2023-06-29T06:55:08.358Z,100659.50
2023-06-29T06:57:20.654Z,100658.88
2023-06-29T06:59:59.221Z,100659.89
2023-06-29T07:01:59.169Z,100653.74
2023-06-29T07:03:53.866Z,100654.92
2023-06-29T07:05:48.228Z,100652.21
2023-06-29T07:07:42.019Z,100647.20
2023-06-29T07:09:35.849Z,100649.71
2023-06-29T07:16:20.264Z,100640.02
2023-06-29T07:18:14.610Z,100641.97
2023-06-29T07:24:07.105Z,100640.25
2023-06-29T07:26:08.401Z,100640.32
2023-06-29T07:28:04.828Z,100633.70
2023-06-29T07:29:58.092Z,100635.86
2023-06-29T07:31:51.469Z,100632.20
2023-06-29T07:33:45.119Z,100634.02
2023-06-29T07:35:38.764Z,100631.32
2023-06-29T07:37:32.397Z,100628.09
2023-06-29T07:39:25.905Z,100628.19
2023-06-29T07:41:22.431Z,100626.64
2023-06-29T07:43:15.803Z,100621.60
2023-06-29T07:45:17.135Z,100623.46
2023-06-29T07:47:12.867Z,100617.08
2023-06-29T07:49:06.298Z,100612.80
2023-06-29T07:51:01.265Z,100612.95
2023-06-29T07:52:55.473Z,100618.67
2023-06-29T07:54:48.625Z,100618.64
2023-06-29T07:58:40.450Z,100612.77
2023-06-29T08:00:33.754Z,100613.11
2023-06-29T08:02:26.802Z,100613.88
2023-06-29T08:06:46.590Z,100611.55
2023-06-29T08:08:33.189Z,100606.85
2023-06-29T08:10:26.513Z,100607.35
2023-06-29T08:12:19.675Z,100603.41
2023-06-29T08:14:12.821Z,100606.11
2023-06-29T08:16:06.598Z,100608.84
2023-06-29T08:17:59.675Z,100604.44
2023-06-29T08:19:52.689Z,100601.86
2023-06-29T08:21:48.764Z,100601.14
2023-06-29T08:23:42.171Z,100601.37
2023-06-29T08:25:35.221Z,100596.64
2023-06-29T08:27:28.279Z,100600.35
2023-06-29T08:29:21.316Z,100597.28
2023-06-29T08:31:14.568Z,100597.23
2023-06-29T08:33:08.014Z,100599.06
2023-06-29T08:35:01.135Z,100600.85
2023-06-29T08:36:54.241Z,100599.85
2023-06-29T08:38:48.215Z,100603.89
2023-06-29T08:40:42.152Z,100605.23
2023-06-29T08:42:38.438Z,100607.83
2023-06-29T08:44:31.672Z,100605.56
2023-06-29T08:46:26.631Z,100603.59
2023-06-29T08:48:19.814Z,100602.53
2023-06-29T08:50:13.077Z,100599.55
2023-06-29T08:52:07.659Z,100599.45
2023-06-29T08:54:01.530Z,100606.36
2023-06-29T08:55:54.981Z,100603.34
2023-06-29T08:57:48.139Z,100601.90
2023-06-29T08:59:41.850Z,100599.13
2023-06-29T09:01:35.249Z,100597.33
2023-06-29T09:03:31.009Z,100596.13
2023-06-29T09:05:24.953Z,100597.30
2023-06-29T09:07:18.325Z,100593.94
2023-06-29T09:09:11.358Z,100595.90
2023-06-29T09:11:05.017Z,100593.88
2023-06-29T09:12:58.379Z,100589.55
2023-06-29T09:14:52.462Z,100587.21
2023-06-29T09:16:57.724Z,100585.64
2023-06-29T09:18:55.499Z,100596.92
2023-06-29T09:20:50.633Z,100587.11
2023-06-29T09:22:44.537Z,100590.35
2023-06-29T09:24:43.698Z,100587.82
2023-06-29T09:26:51.146Z,100583.99
2023-06-29T09:28:50.230Z,100587.96
2023-06-29T09:30:43.663Z,100585.40
2023-06-29T09:32:41.333Z,100584.94
2023-06-29T09:34:34.592Z,100582.95
2023-06-29T09:36:28.544Z,100584.33
2023-06-29T09:38:21.834Z,100582.15
2023-06-29T09:40:15.162Z,100580.83
2023-06-29T09:42:11.039Z,100578.48
2023-06-29T09:44:08.244Z,100575.77
2023-06-29T09:46:08.921Z,100571.73
2023-06-29T09:50:02.604Z,100568.20
2023-06-29T09:52:06.523Z,100566.64
2023-06-29T09:54:23.806Z,100563.23
2023-06-29T09:56:35.803Z,100562.83
2023-06-29T09:58:32.352Z,100563.52
2023-06-29T10:00:29.484Z,100563.88
2023-06-29T10:02:22.829Z,100556.41
2023-06-29T10:04:19.126Z,100557.33
2023-06-29T10:06:25.499Z,100557.73
2023-06-29T10:08:36.277Z,100557.94
2023-06-29T10:10:39.020Z,100557.12
2023-06-29T10:12:33.744Z,100552.13
2023-06-29T10:14:27.477Z,100549.95
2023-06-29T10:16:22.895Z,100553.62
2023-06-29T10:18:33.043Z,100550.45
2023-06-29T10:20:28.174Z,100551.55
2023-06-29T10:22:22.454Z,100546.00
2023-06-29T10:24:20.073Z,100549.16
2023-06-29T10:26:13.850Z,100541.89
2023-06-29T10:28:08.931Z,100543.80
2023-06-29T10:30:06.423Z,100547.59
2023-06-29T10:32:00.624Z,100546.47
2023-06-29T10:34:59.193Z,100547.80
2023-06-29T10:37:06.687Z,100540.48
2023-06-29T10:39:55.268Z,100540.88
2023-06-29T10:42:28.264Z,100545.45
2023-06-29T10:44:21.702Z,100541.08
2023-06-29T10:46:17.636Z,100540.18
2023-06-29T10:48:25.463Z,100536.73
2023-06-29T10:50:29.987Z,100526.84
2023-06-29T10:52:25.948Z,100528.86
2023-06-29T10:54:22.507Z,100531.48
2023-06-29T10:56:30.781Z,100524.84
2023-06-29T10:58:40.201Z,100524.95
2023-06-29T11:00:33.429Z,100523.65
2023-06-29T11:02:26.640Z,100521.75
2023-06-29T11:04:20.612Z,100519.09
2023-06-29T11:06:24.801Z,100517.75
2023-06-29T11:08:23.128Z,100523.58
2023-06-29T11:10:16.238Z,100518.84
2023-06-29T11:12:09.447Z,100517.52
2023-06-29T11:14:03.929Z,100519.02
2023-06-29T11:15:57.996Z,100521.04
2023-06-29T11:17:52.900Z,100522.77
2023-06-29T11:19:47.100Z,100519.52
2023-06-29T11:21:42.198Z,100524.42
2023-06-29T11:23:35.329Z,100524.65
2023-06-29T11:25:31.956Z,100526.27
2023-06-29T11:27:25.131Z,100523.45
2023-06-29T11:29:19.190Z,100516.36
2023-06-29T11:31:12.827Z,100513.19
2023-06-29T11:33:33.615Z,100510.73
2023-06-29T11:35:30.732Z,100505.84
2023-06-29T11:37:24.845Z,100509.27
2023-06-29T11:39:19.155Z,100506.03
2023-06-29T11:41:12.398Z,100505.39
2023-06-29T11:43:05.762Z,100504.49
2023-06-29T11:45:10.928Z,100505.51
2023-06-29T11:47:18.512Z,100502.52
2023-06-29T11:49:23.047Z,100505.73
2023-06-29T11:51:17.961Z,100505.00
2023-06-29T11:53:13.566Z,100499.56
2023-06-29T11:55:09.435Z,100498.52
2023-06-29T11:57:04.132Z,100496.73
2023-06-29T11:59:17.321Z,100498.12
2023-06-29T12:01:17.360Z,100491.48
2023-06-29T12:03:12.231Z,100492.14
2023-06-29T12:05:06.786Z,100493.44
2023-06-29T12:07:00.363Z,100489.32
2023-06-29T12:08:53.772Z,100487.91
2023-06-29T12:10:47.233Z,100487.29
2023-06-29T12:12:43.840Z,100483.38
2023-06-29T12:14:37.227Z,100484.23
2023-06-29T12:18:30.141Z,100489.33
2023-06-29T12:20:25.816Z,100484.41
2023-06-29T12:22:22.901Z,100488.29
2023-06-29T12:24:19.823Z,100481.98
2023-06-29T12:26:16.492Z,100481.25
2023-06-29T12:28:10.088Z,100484.07
2023-06-29T12:30:04.042Z,100475.58
2023-06-29T12:32:02.033Z,100473.38
2023-06-29T12:33:55.399Z,100469.44
2023-06-29T12:35:49.171Z,100467.81
2023-06-29T12:37:43.107Z,100469.35
2023-06-29T12:39:36.389Z,100475.70
2023-06-29T12:41:29.758Z,100468.73
2023-06-29T12:43:22.977Z,100465.83
2023-06-29T12:45:16.037Z,100467.48
2023-06-29T12:47:09.533Z,100464.75
2023-06-29T12:49:02.945Z,100455.11
2023-06-29T12:51:01.251Z,100457.74
2023-06-29T12:52:55.023Z,100456.33
2023-06-29T12:54:48.443Z,100455.94
2023-06-29T12:56:41.403Z,100450.77
2023-06-29T12:58:35.583Z,100450.39
2023-06-29T13:00:28.727Z,100450.61
2023-06-29T13:02:22.696Z,100447.11
2023-06-29T13:04:21.894Z,100449.65
2023-06-29T13:06:18.340Z,100450.92
2023-06-29T13:08:25.876Z,100450.43
2023-06-29T13:10:19.675Z,100445.67
2023-06-29T13:12:15.984Z,100444.29
2023-06-29T13:14:09.267Z,100437.05
2023-06-29T13:16:02.414Z,100434.02
2023-06-29T13:17:56.201Z,100436.25
2023-06-29T13:19:49.742Z,100435.52
2023-06-29T13:21:42.850Z,100436.41
2023-06-29T13:23:36.112Z,100438.34
2023-06-29T13:25:29.305Z,100439.02
2023-06-29T13:27:23.688Z,100437.89
2023-06-29T13:29:17.248Z,100435.52
2023-06-29T13:31:10.234Z,100432.88
2023-06-29T13:33:03.971Z,100427.30
2023-06-29T13:34:57.645Z,100424.77
2023-06-29T13:36:50.680Z,100425.14
2023-06-29T13:38:43.794Z,100426.95
2023-06-29T13:40:36.883Z,100425.14
2023-06-29T13:42:29.833Z,100423.98
2023-06-29T13:44:23.661Z,100421.30
2023-06-29T13:46:16.657Z,100420.69
2023-06-29T13:48:10.021Z,100415.62
2023-06-29T13:50:03.384Z,100417.45
2023-06-29T13:51:56.419Z,100420.05
2023-06-29T13:53:50.807Z,100416.75
2023-06-29T13:55:47.554Z,100413.41
2023-06-29T13:57:40.726Z,100413.70
2023-06-29T13:59:33.963Z,100404.27
2023-06-29T14:01:27.017Z,100403.81
2023-06-29T14:03:20.143Z,100407.08
2023-06-29T14:05:13.508Z,100407.56
2023-06-29T14:07:08.136Z,100408.59
2023-06-29T14:09:01.978Z,100404.23
2023-06-29T14:10:56.039Z,100405.25
2023-06-29T14:12:49.086Z,100406.77
2023-06-29T14:14:45.823Z,100400.42
2023-06-29T14:16:39.017Z,100400.05
2023-06-29T14:18:32.258Z,100401.30
2023-06-29T14:20:25.637Z,100391.06
2023-06-29T14:22:19.379Z,100388.66
2023-06-29T14:24:12.617Z,100386.92
2023-06-29T14:26:05.604Z,100385.17
2023-06-29T14:27:58.716Z,100382.41
2023-06-29T14:29:51.769Z,100376.55
2023-06-29T14:31:45.690Z,100372.78
2023-06-29T14:33:39.172Z,100373.56
2023-06-29T14:35:35.772Z,100376.42
2023-06-29T14:37:30.045Z,100377.29
2023-06-29T14:39:23.283Z,100373.15
2023-06-29T14:41:16.418Z,100370.02
2023-06-29T14:43:09.474Z,100371.19
2023-06-29T14:45:02.519Z,100373.81
2023-06-29T14:46:56.706Z,100367.77
2023-06-29T14:48:49.654Z,100365.58
2023-06-29T14:50:43.928Z,100363.73
2023-06-29T14:52:39.672Z,100358.27
2023-06-29T14:54:32.687Z,100358.55
2023-06-29T14:56:25.881Z,100358.16
2023-06-29T14:58:19.539Z,100358.81
2023-06-29T15:00:13.440Z,100361.42
2023-06-29T15:02:06.555Z,100357.21
2023-06-29T15:03:59.757Z,100351.42
2023-06-29T15:05:53.055Z,100343.13
2023-06-29T15:07:46.161Z,100345.64
2023-06-29T15:09:39.348Z,100344.23
2023-06-29T15:11:32.412Z,100342.27
2023-06-29T15:13:25.446Z,100342.09
2023-06-29T15:15:19.153Z,100335.89
2023-06-29T15:17:12.159Z,100335.34
2023-06-29T15:19:05.226Z,100333.85
2023-06-29T15:20:58.260Z,100332.20
2023-06-29T15:22:51.317Z,100335.77
2023-06-29T15:24:44.373Z,100336.48
2023-06-29T15:26:37.425Z,100333.23
2023-06-29T15:28:30.467Z,100334.38
2023-06-29T15:30:23.451Z,100329.81
2023-06-29T15:32:16.577Z,100328.92
2023-06-29T15:34:09.622Z,100324.19
2023-06-29T15:36:02.875Z,100322.23
2023-06-29T15:37:55.924Z,100322.47
2023-06-29T15:39:49.486Z,100322.69
2023-06-29T15:41:50.960Z,100319.64
2023-06-29T15:43:45.930Z,100320.89
2023-06-29T15:45:39.014Z,100316.76
2023-06-29T15:47:33.620Z,100315.70
2023-06-29T15:49:27.746Z,100316.24
2023-06-29T15:51:21.759Z,100317.04
2023-06-29T15:53:15.044Z,100315.42
2023-06-29T15:55:08.643Z,100317.01
2023-06-29T15:57:01.907Z,100314.70
2023-06-29T15:58:55.898Z,100313.41
2023-06-29T16:00:48.918Z,100315.16
2023-06-29T16:02:42.031Z,100311.31
2023-06-29T16:04:36.122Z,100307.75
2023-06-29T16:06:31.142Z,100303.42
2023-06-29T16:08:24.327Z,100299.40
2023-06-29T16:10:17.342Z,100297.36
2023-06-29T16:12:10.908Z,100300.62
2023-06-29T16:14:03.961Z,100301.48
2023-06-29T16:15:56.935Z,100298.85
2023-06-29T16:17:50.004Z,100300.36
2023-06-29T16:19:43.310Z,100300.52
2023-06-29T16:21:36.364Z,100299.39
2023-06-29T16:23:29.928Z,100299.58
2023-06-29T16:25:25.333Z,100299.75
2023-06-29T16:27:18.385Z,100297.67
2023-06-29T16:29:11.435Z,100292.39
2023-06-29T16:31:04.521Z,100294.03
2023-06-29T16:32:57.787Z,100293.11
2023-06-29T16:34:50.894Z,100291.23
2023-06-29T16:36:43.967Z,100290.30
2023-06-29T16:38:37.001Z,100291.80
2023-06-29T16:40:29.990Z,100292.48
2023-06-29T16:42:22.991Z,100290.34
2023-06-29T16:44:16.048Z,100288.58
2023-06-29T16:46:09.328Z,100288.59
2023-06-29T16:48:02.404Z,100283.51
2023-06-29T16:49:56.454Z,100281.70
2023-06-29T16:51:49.791Z,100282.73
2023-06-29T16:53:42.762Z,100281.60
2023-06-29T16:55:36.095Z,100283.29
2023-06-29T16:57:29.173Z,100282.58
2023-06-29T16:59:22.315Z,100283.97
2023-06-29T17:01:15.497Z,100282.34
2023-06-29T17:03:08.754Z,100282.61
2023-06-29T17:05:01.955Z,100281.41
2023-06-29T17:06:55.034Z,100281.83
2023-06-29T17:08:48.369Z,100278.63
2023-06-29T17:10:41.409Z,100277.42
2023-06-29T17:12:34.494Z,100273.83
2023-06-29T17:14:27.734Z,100273.17
2023-06-29T17:16:21.324Z,100275.01
2023-06-29T17:18:15.519Z,100271.54
2023-06-29T17:20:09.262Z,100271.54
2023-06-29T17:22:02.815Z,100269.48
2023-06-29T17:23:56.573Z,100270.07
2023-06-29T17:25:51.715Z,100269.92
2023-06-29T17:27:44.811Z,100266.27
2023-06-29T17:29:39.845Z,100261.73
2023-06-29T17:37:19.271Z,100256.71
2023-06-29T17:39:12.225Z,100258.36
2023-06-29T17:41:05.588Z,100251.42
2023-06-29T17:42:58.968Z,100250.41
2023-06-29T17:44:51.885Z,100249.58
2023-06-29T17:46:45.663Z,100249.04
2023-06-29T17:48:39.148Z,100245.31
2023-06-29T17:50:32.189Z,100247.95
2023-06-29T17:52:25.222Z,100247.00
2023-06-29T17:54:18.312Z,100245.66
2023-06-29T17:56:11.830Z,100244.86
2023-06-29T17:58:04.878Z,100250.79
2023-06-29T17:59:58.150Z,100248.22
2023-06-29T18:01:51.219Z,100248.36
2023-06-29T18:03:44.763Z,100246.44
2023-06-29T18:05:37.902Z,100249.23
2023-06-29T18:07:30.906Z,100251.56
2023-06-29T18:09:23.956Z,100248.69
2023-06-29T18:11:17.999Z,100247.75
2023-06-29T18:13:11.225Z,100242.22
2023-06-29T18:15:08.179Z,100243.05
2023-06-29T18:17:01.249Z,100245.02
2023-06-29T18:18:54.373Z,100245.83
2023-06-29T18:20:48.045Z,100247.54
2023-06-29T18:22:41.091Z,100250.16
2023-06-29T18:24:34.104Z,100245.72
2023-06-29T18:26:27.014Z,100247.42
2023-06-29T18:28:20.239Z,100245.32
2023-06-29T18:30:13.911Z,100247.38
2023-06-29T18:32:07.588Z,100248.01
2023-06-29T18:34:00.623Z,100248.27
2023-06-29T18:35:53.681Z,100242.65
2023-06-29T18:37:46.929Z,100242.40
2023-06-29T18:39:39.887Z,100240.34
2023-06-29T18:41:37.893Z,100243.23
2023-06-29T18:43:30.791Z,100241.58
2023-06-29T18:45:26.259Z,100240.45
2023-06-29T18:47:19.701Z,100234.02
2023-06-29T18:49:13.881Z,100237.19
2023-06-29T18:51:06.784Z,100235.48
2023-06-29T18:53:01.698Z,100239.40
2023-06-29T18:54:56.980Z,100240.68
2023-06-29T18:56:49.937Z,100244.86
2023-06-29T18:58:42.880Z,100244.56
2023-06-29T19:00:37.170Z,100242.27
2023-06-29T19:02:30.225Z,100244.93
2023-06-29T19:04:23.672Z,100245.60
2023-06-29T19:06:16.724Z,100241.44
2023-06-29T19:08:10.306Z,100243.45
2023-06-29T19:10:04.366Z,100243.75
2023-06-29T19:11:57.816Z,100245.61
2023-06-29T19:13:50.970Z,100246.59
2023-06-29T19:15:44.520Z,100245.93
2023-06-29T19:17:38.013Z,100246.23
2023-06-29T19:19:31.454Z,100249.47
2023-06-29T19:21:32.311Z,100252.92
2023-06-29T19:23:32.406Z,100254.80
2023-06-29T19:25:25.368Z,100255.56
2023-06-29T19:27:18.411Z,100255.52
2023-06-29T19:29:12.488Z,100254.08
2023-06-29T19:31:05.740Z,100262.86
2023-06-29T19:33:02.475Z,100263.16
2023-06-29T19:34:55.826Z,100267.06
2023-06-29T19:36:50.093Z,100269.14
2023-06-29T19:38:43.245Z,100268.02
2023-06-29T19:40:36.339Z,100267.86
2023-06-29T19:42:30.526Z,100265.44
2023-06-29T19:44:23.568Z,100263.82
2023-06-29T19:46:16.609Z,100264.34
2023-06-29T19:48:09.884Z,100266.14
2023-06-29T19:50:05.101Z,100264.56
2023-06-29T19:51:59.017Z,100265.30
2023-06-29T19:53:52.680Z,100270.69
2023-06-29T19:55:45.920Z,100272.55
2023-06-29T19:57:39.294Z,100271.58
2023-06-29T19:59:32.353Z,100277.85
2023-06-29T20:01:25.396Z,100280.34
2023-06-29T20:03:19.553Z,100280.71
2023-06-29T20:05:12.977Z,100282.95
2023-06-29T20:07:06.412Z,100284.77
2023-06-29T20:08:59.376Z,100285.20
2023-06-29T20:10:52.394Z,100276.17
2023-06-29T20:12:46.371Z,100279.98
2023-06-29T20:14:39.922Z,100278.90
2023-06-29T20:16:33.013Z,100279.17
2023-06-29T20:18:26.644Z,100274.23
2023-06-29T20:20:19.685Z,100278.11
2023-06-29T20:22:13.221Z,100276.14
2023-06-29T20:24:06.756Z,100278.09
2023-06-29T20:25:59.864Z,100275.45
2023-06-29T20:27:52.919Z,100278.00
2023-06-29T20:29:47.088Z,100278.84
2023-06-29T20:31:40.192Z,100275.23
2023-06-29T20:33:33.291Z,100277.79
2023-06-29T20:35:26.347Z,100276.98
2023-06-29T20:37:20.348Z,100279.50
2023-06-29T20:39:13.470Z,100278.84
2023-06-29T20:41:06.517Z,100277.00
2023-06-29T20:43:00.183Z,100278.70
2023-06-29T20:44:57.457Z,100274.55
2023-06-29T20:46:50.829Z,100275.91
2023-06-29T20:48:45.662Z,100275.95
2023-06-29T20:50:42.523Z,100275.05
2023-06-29T20:52:35.573Z,100274.52
2023-06-29T20:54:29.445Z,100272.02
2023-06-29T20:56:22.699Z,100273.55
2023-06-29T20:58:15.950Z,100272.73
2023-06-29T21:00:13.156Z,100272.67
2023-06-29T21:02:07.815Z,100273.67
2023-06-29T21:04:01.377Z,100275.38
2023-06-29T21:05:54.773Z,100270.36
2023-06-29T21:07:48.217Z,100268.48
2023-06-29T21:09:41.563Z,100269.31
2023-06-29T21:11:35.531Z,100265.73
2023-06-29T21:13:30.292Z,100263.42
2023-06-29T21:15:23.450Z,100266.08
2023-06-29T21:17:16.827Z,100266.14
2023-06-29T21:19:10.157Z,100267.35
2023-06-29T21:21:03.833Z,100265.80
2023-06-29T21:22:56.984Z,100267.59
2023-06-29T21:24:50.998Z,100263.00
2023-06-29T21:26:44.570Z,100261.02
2023-06-29T21:28:42.027Z,100261.02
2023-06-29T21:30:37.554Z,100258.73
2023-06-29T21:32:31.620Z,100259.39
2023-06-29T21:34:24.925Z,100259.23
2023-06-29T21:36:18.366Z,100259.34
2023-06-29T21:38:11.840Z,100257.42
2023-06-29T21:40:06.718Z,100262.62
2023-06-29T21:42:01.021Z,100263.99
2023-06-29T21:43:54.256Z,100258.42
2023-06-29T21:45:47.487Z,100262.61
2023-06-29T21:47:40.705Z,100258.70
2023-06-29T21:49:34.020Z,100260.38
2023-06-29T21:51:27.758Z,100254.42
2023-06-29T21:53:21.557Z,100255.30
2023-06-29T21:55:15.735Z,100258.29
2023-06-29T21:57:08.993Z,100258.84
2023-06-29T21:59:02.244Z,100257.02
2023-06-29T22:00:55.623Z,100256.30
2023-06-29T22:02:48.930Z,100255.42
2023-06-29T22:04:42.329Z,100256.19
2023-06-29T22:06:35.818Z,100250.11
2023-06-29T22:08:29.033Z,100254.98
2023-06-29T22:10:22.249Z,100256.09
2023-06-29T22:12:15.754Z,100255.32
2023-06-29T22:14:09.125Z,100252.34